Flint, MI (48507)

1:37 PM EST on December 25, 2014 (GMT -0500)
Dave Grand Blanc | Change Station
CLOSE
Current Station
Personal Weather Station
Location: Grand Blanc, MI
Elevation: 797 ft
Nearby Weather Stations

Elev 797 ft 42.95 °N, 83.67 °W | Updated 4 seconds ago

Overcast
Overcast
38.5 °F
Feels Like 35 °F
N
4.7
Wind Variable Wind from SSW
Gusts 4.7 mph

Today
High -- | Low -- °F
--% Chance of Precip.
Yesterday
High -- | Low -- °F
Precip. -- in
8:04 AM 5:05 PM
Waxing Crescent, 18% visible
Pressure 29.94 in
Visibility 10.0 miles
Clouds Overcast 2300 ft
Windchill 35 °F
Dew Point 33 °F
Humidity 79%
Rainfall 0.05 in
Snow Depth Not available.
UV 1 out of 12
Pollen .10 out of 12
Air Quality Not available.
Flu Activity Not available.
METAR KFNT 251753Z 26010KT 10SM OVC023 04/M01 A2992 RMK AO2 SLP138 60000 T00391011 10039 20028 51025

More Conditions Fewer Conditions

Pressure 29.94 in
Visibility 10.0 miles
Clouds Overcast 2300 ft
Windchill 35 °F
Dew Point 33 °F
Humidity 79%
Rainfall 0.05 in
Snow Depth Not available.
UV 1 out of 12
Pollen .10 out of 12
Air Quality Not available.
Flu Activity Not available.
METAR KFNT 251753Z 26010KT 10SM OVC023 04/M01 A2992 RMK AO2 SLP138 60000 T00391011 10039 20028 51025

More Conditions Fewer Conditions

10-Day Weather Forecast

Almanac

Astronomy

Dec. 25, 2014 Rise Set
Actual Time
Civil Twilight
Nautical Twilight
Astronomical Twilight
Moon
Length of Visible Light
Length of Day
Tomorrow will be .
, % of the Moon is Illuminated

Today's Extremes

State Highs State Lows

Community

WunderPhotos

Upload Photos

1,780,357 photos uploaded!

WunderBlogs® & News

Nearby

Air Quality

  Air Quality AQ Index Pollutant
Not available.

Snow Depth

Station Depth Elevation

Earthquake Activity

City Distance Mag. Time & Date
Minimum magnitude displayed is 2.5.

Coastal Water Temperatures

Place Temperature

Nearby Weather Stations